sensor_id;sensor_type;location;lat;lon;timestamp;P1;durP1;ratioP1;P2;durP2;ratioP2
48578;SDS011;34357;51.948;6.132;2022-08-07T00:00:19;4.53;;;3.50;;
48578;SDS011;34357;51.948;6.132;2022-08-07T00:02:44;6.13;;;3.67;;
48578;SDS011;34357;51.948;6.132;2022-08-07T00:05:10;10.80;;;3.30;;
48578;SDS011;34357;51.948;6.132;2022-08-07T00:07:36;5.30;;;3.28;;
48578;SDS011;34357;51.948;6.132;2022-08-07T00:10:01;8.82;;;3.75;;
48578;SDS011;34357;51.948;6.132;2022-08-07T00:12:28;5.43;;;3.78;;
48578;SDS011;34357;51.948;6.132;2022-08-07T00:14:53;5.03;;;3.60;;
48578;SDS011;34357;51.948;6.132;2022-08-07T00:17:19;5.05;;;3.50;;
48578;SDS011;34357;51.948;6.132;2022-08-07T00:19:44;6.60;;;3.45;;
48578;SDS011;34357;51.948;6.132;2022-08-07T00:22:11;5.95;;;4.05;;
48578;SDS011;34357;51.948;6.132;2022-08-07T00:24:37;5.78;;;3.55;;
48578;SDS011;34357;51.948;6.132;2022-08-07T00:27:02;8.70;;;4.38;;
48578;SDS011;34357;51.948;6.132;2022-08-07T00:29:28;4.90;;;3.92;;
48578;SDS011;34357;51.948;6.132;2022-08-07T00:31:54;6.78;;;4.45;;
48578;SDS011;34357;51.948;6.132;2022-08-07T00:34:24;7.90;;;3.97;;
48578;SDS011;34357;51.948;6.132;2022-08-07T00:36:51;7.63;;;4.35;;
48578;SDS011;34357;51.948;6.132;2022-08-07T00:39:17;7.38;;;4.53;;
48578;SDS011;34357;51.948;6.132;2022-08-07T00:41:54;5.90;;;3.97;;
48578;SDS011;34357;51.948;6.132;2022-08-07T00:44:22;6.32;;;4.95;;
48578;SDS011;34357;51.948;6.132;2022-08-07T00:46:48;7.57;;;5.07;;
48578;SDS011;34357;51.948;6.132;2022-08-07T00:49:15;10.35;;;4.38;;
48578;SDS011;34357;51.948;6.132;2022-08-07T00:51:41;5.70;;;4.80;;
48578;SDS011;34357;51.948;6.132;2022-08-07T00:54:08;6.47;;;4.82;;
48578;SDS011;34357;51.948;6.132;2022-08-07T00:56:34;6.78;;;4.30;;
48578;SDS011;34357;51.948;6.132;2022-08-07T00:59:01;6.30;;;4.93;;
48578;SDS011;34357;51.948;6.132;2022-08-07T01:01:27;6.22;;;4.68;;
48578;SDS011;34357;51.948;6.132;2022-08-07T01:03:53;7.25;;;4.78;;
48578;SDS011;34357;51.948;6.132;2022-08-07T01:06:19;6.07;;;4.40;;
48578;SDS011;34357;51.948;6.132;2022-08-07T01:08:45;6.18;;;4.85;;
48578;SDS011;34357;51.948;6.132;2022-08-07T01:11:12;5.05;;;4.55;;
48578;SDS011;34357;51.948;6.132;2022-08-07T01:13:39;5.88;;;4.45;;
48578;SDS011;34357;51.948;6.132;2022-08-07T01:16:05;7.00;;;4.65;;
48578;SDS011;34357;51.948;6.132;2022-08-07T01:18:32;10.27;;;5.22;;
48578;SDS011;34357;51.948;6.132;2022-08-07T01:23:30;8.52;;;5.22;;
48578;SDS011;34357;51.948;6.132;2022-08-07T01:25:57;7.05;;;5.07;;
48578;SDS011;34357;51.948;6.132;2022-08-07T01:28:23;7.05;;;5.40;;
48578;SDS011;34357;51.948;6.132;2022-08-07T01:30:51;7.15;;;5.05;;
48578;SDS011;34357;51.948;6.132;2022-08-07T01:33:19;7.68;;;5.93;;
48578;SDS011;34357;51.948;6.132;2022-08-07T01:35:45;6.97;;;5.40;;
48578;SDS011;34357;51.948;6.132;2022-08-07T01:38:11;8.02;;;5.03;;
48578;SDS011;34357;51.948;6.132;2022-08-07T01:40:36;9.75;;;5.78;;
48578;SDS011;34357;51.948;6.132;2022-08-07T01:43:05;11.55;;;6.03;;
48578;SDS011;34357;51.948;6.132;2022-08-07T01:45:31;9.43;;;5.63;;
48578;SDS011;34357;51.948;6.132;2022-08-07T01:47:59;8.07;;;6.07;;
48578;SDS011;34357;51.948;6.132;2022-08-07T01:50:25;8.35;;;6.00;;
48578;SDS011;34357;51.948;6.132;2022-08-07T01:52:52;7.55;;;5.28;;
48578;SDS011;34357;51.948;6.132;2022-08-07T01:55:24;10.23;;;5.60;;
48578;SDS011;34357;51.948;6.132;2022-08-07T01:57:54;7.10;;;6.22;;
48578;SDS011;34357;51.948;6.132;2022-08-07T02:00:23;10.52;;;5.78;;
48578;SDS011;34357;51.948;6.132;2022-08-07T02:02:54;6.97;;;5.90;;
48578;SDS011;34357;51.948;6.132;2022-08-07T02:08:00;10.00;;;6.25;;
48578;SDS011;34357;51.948;6.132;2022-08-07T02:10:33;8.25;;;6.22;;
48578;SDS011;34357;51.948;6.132;2022-08-07T02:13:03;8.43;;;6.20;;
48578;SDS011;34357;51.948;6.132;2022-08-07T02:18:01;8.98;;;6.72;;
48578;SDS011;34357;51.948;6.132;2022-08-07T02:20:28;8.38;;;6.28;;
48578;SDS011;34357;51.948;6.132;2022-08-07T02:22:58;7.80;;;6.38;;
48578;SDS011;34357;51.948;6.132;2022-08-07T02:25:28;10.95;;;6.95;;
48578;SDS011;34357;51.948;6.132;2022-08-07T02:27:56;9.32;;;6.65;;
48578;SDS011;34357;51.948;6.132;2022-08-07T02:30:24;7.63;;;5.80;;
48578;SDS011;34357;51.948;6.132;2022-08-07T02:32:52;9.60;;;6.88;;
48578;SDS011;34357;51.948;6.132;2022-08-07T02:35:20;9.30;;;6.78;;
48578;SDS011;34357;51.948;6.132;2022-08-07T02:37:51;8.77;;;6.43;;
48578;SDS011;34357;51.948;6.132;2022-08-07T02:40:21;8.60;;;6.40;;
48578;SDS011;34357;51.948;6.132;2022-08-07T02:42:47;11.38;;;6.88;;
48578;SDS011;34357;51.948;6.132;2022-08-07T02:45:13;9.02;;;6.95;;
48578;SDS011;34357;51.948;6.132;2022-08-07T02:47:41;8.52;;;6.57;;
48578;SDS011;34357;51.948;6.132;2022-08-07T02:50:13;11.05;;;7.15;;
48578;SDS011;34357;51.948;6.132;2022-08-07T02:52:46;8.48;;;6.95;;
48578;SDS011;34357;51.948;6.132;2022-08-07T02:55:22;8.85;;;6.78;;
48578;SDS011;34357;51.948;6.132;2022-08-07T02:57:53;11.07;;;7.28;;
48578;SDS011;34357;51.948;6.132;2022-08-07T03:00:23;8.95;;;7.60;;
48578;SDS011;34357;51.948;6.132;2022-08-07T03:02:52;9.77;;;7.28;;
48578;SDS011;34357;51.948;6.132;2022-08-07T03:05:19;9.77;;;7.57;;
48578;SDS011;34357;51.948;6.132;2022-08-07T03:07:46;9.60;;;7.38;;
48578;SDS011;34357;51.948;6.132;2022-08-07T03:10:14;10.73;;;7.35;;
48578;SDS011;34357;51.948;6.132;2022-08-07T03:12:42;10.10;;;7.78;;
48578;SDS011;34357;51.948;6.132;2022-08-07T03:15:11;9.10;;;7.43;;
48578;SDS011;34357;51.948;6.132;2022-08-07T03:17:38;10.63;;;7.85;;
48578;SDS011;34357;51.948;6.132;2022-08-07T03:20:06;8.65;;;7.40;;
48578;SDS011;34357;51.948;6.132;2022-08-07T03:22:33;13.00;;;7.40;;
48578;SDS011;34357;51.948;6.132;2022-08-07T03:25:01;9.45;;;7.82;;
48578;SDS011;34357;51.948;6.132;2022-08-07T03:27:35;11.38;;;7.40;;
48578;SDS011;34357;51.948;6.132;2022-08-07T03:30:02;13.57;;;8.23;;
48578;SDS011;34357;51.948;6.132;2022-08-07T03:32:30;11.13;;;7.38;;
48578;SDS011;34357;51.948;6.132;2022-08-07T03:34:58;10.52;;;7.50;;
48578;SDS011;34357;51.948;6.132;2022-08-07T03:37:30;10.38;;;7.80;;
48578;SDS011;34357;51.948;6.132;2022-08-07T03:40:00;10.60;;;8.18;;
48578;SDS011;34357;51.948;6.132;2022-08-07T03:42:27;13.88;;;8.88;;
48578;SDS011;34357;51.948;6.132;2022-08-07T03:44:53;14.02;;;8.75;;
48578;SDS011;34357;51.948;6.132;2022-08-07T03:47:20;16.40;;;8.35;;
48578;SDS011;34357;51.948;6.132;2022-08-07T03:49:46;14.13;;;8.68;;
48578;SDS011;34357;51.948;6.132;2022-08-07T03:52:13;11.90;;;8.80;;
48578;SDS011;34357;51.948;6.132;2022-08-07T03:54:39;12.43;;;8.88;;
48578;SDS011;34357;51.948;6.132;2022-08-07T03:57:07;11.40;;;9.18;;
48578;SDS011;34357;51.948;6.132;2022-08-07T03:59:35;13.27;;;9.05;;
48578;SDS011;34357;51.948;6.132;2022-08-07T04:02:01;12.98;;;9.35;;
48578;SDS011;34357;51.948;6.132;2022-08-07T04:04:28;17.75;;;9.68;;
48578;SDS011;34357;51.948;6.132;2022-08-07T04:06:58;14.30;;;9.27;;
48578;SDS011;34357;51.948;6.132;2022-08-07T04:09:23;13.43;;;8.95;;
48578;SDS011;34357;51.948;6.132;2022-08-07T04:11:55;11.75;;;9.63;;
48578;SDS011;34357;51.948;6.132;2022-08-07T04:14:22;16.27;;;10.25;;
48578;SDS011;34357;51.948;6.132;2022-08-07T04:16:49;13.30;;;9.48;;
48578;SDS011;34357;51.948;6.132;2022-08-07T04:19:15;17.48;;;9.68;;
48578;SDS011;34357;51.948;6.132;2022-08-07T04:21:48;17.08;;;10.00;;
48578;SDS011;34357;51.948;6.132;2022-08-07T04:24:14;16.05;;;9.60;;
48578;SDS011;34357;51.948;6.132;2022-08-07T04:26:40;14.57;;;10.35;;
48578;SDS011;34357;51.948;6.132;2022-08-07T04:29:06;18.50;;;9.80;;
48578;SDS011;34357;51.948;6.132;2022-08-07T04:31:36;15.52;;;10.15;;
48578;SDS011;34357;51.948;6.132;2022-08-07T04:34:05;15.70;;;9.70;;
48578;SDS011;34357;51.948;6.132;2022-08-07T04:36:32;14.02;;;9.27;;
48578;SDS011;34357;51.948;6.132;2022-08-07T04:39:00;18.27;;;10.05;;
48578;SDS011;34357;51.948;6.132;2022-08-07T04:41:26;16.48;;;10.10;;
48578;SDS011;34357;51.948;6.132;2022-08-07T04:43:52;17.85;;;10.48;;
48578;SDS011;34357;51.948;6.132;2022-08-07T04:46:43;18.90;;;11.07;;
48578;SDS011;34357;51.948;6.132;2022-08-07T04:54:33;17.27;;;10.68;;
48578;SDS011;34357;51.948;6.132;2022-08-07T04:57:15;17.05;;;11.73;;
48578;SDS011;34357;51.948;6.132;2022-08-07T05:00:07;13.90;;;10.45;;
48578;SDS011;34357;51.948;6.132;2022-08-07T05:08:00;18.58;;;11.80;;
48578;SDS011;34357;51.948;6.132;2022-08-07T05:13:07;14.85;;;10.88;;
48578;SDS011;34357;51.948;6.132;2022-08-07T05:15:40;15.98;;;11.30;;
48578;SDS011;34357;51.948;6.132;2022-08-07T05:18:10;13.00;;;11.27;;
48578;SDS011;34357;51.948;6.132;2022-08-07T05:20:41;19.98;;;13.10;;
48578;SDS011;34357;51.948;6.132;2022-08-07T05:26:20;14.60;;;11.30;;
48578;SDS011;34357;51.948;6.132;2022-08-07T05:28:51;19.75;;;12.38;;
48578;SDS011;34357;51.948;6.132;2022-08-07T05:31:23;15.85;;;12.18;;
48578;SDS011;34357;51.948;6.132;2022-08-07T05:33:52;16.70;;;12.60;;
48578;SDS011;34357;51.948;6.132;2022-08-07T05:36:20;17.98;;;12.52;;
48578;SDS011;34357;51.948;6.132;2022-08-07T05:38:46;19.77;;;11.88;;
48578;SDS011;34357;51.948;6.132;2022-08-07T05:41:15;19.40;;;12.95;;
48578;SDS011;34357;51.948;6.132;2022-08-07T05:43:43;15.68;;;11.80;;
48578;SDS011;34357;51.948;6.132;2022-08-07T05:46:12;16.20;;;12.48;;
48578;SDS011;34357;51.948;6.132;2022-08-07T05:48:38;18.70;;;13.15;;
48578;SDS011;34357;51.948;6.132;2022-08-07T05:51:05;17.42;;;12.93;;
48578;SDS011;34357;51.948;6.132;2022-08-07T05:53:32;16.70;;;12.30;;
48578;SDS011;34357;51.948;6.132;2022-08-07T05:55:58;17.88;;;13.32;;
48578;SDS011;34357;51.948;6.132;2022-08-07T05:58:25;21.40;;;13.18;;
48578;SDS011;34357;51.948;6.132;2022-08-07T06:00:52;20.23;;;12.88;;
48578;SDS011;34357;51.948;6.132;2022-08-07T06:03:19;20.83;;;13.27;;
48578;SDS011;34357;51.948;6.132;2022-08-07T06:05:47;18.52;;;12.85;;
48578;SDS011;34357;51.948;6.132;2022-08-07T06:08:14;22.27;;;13.30;;
48578;SDS011;34357;51.948;6.132;2022-08-07T06:10:42;20.25;;;13.27;;
48578;SDS011;34357;51.948;6.132;2022-08-07T06:13:09;18.63;;;12.30;;
48578;SDS011;34357;51.948;6.132;2022-08-07T06:15:35;18.65;;;13.88;;
48578;SDS011;34357;51.948;6.132;2022-08-07T06:18:02;19.15;;;12.70;;
48578;SDS011;34357;51.948;6.132;2022-08-07T06:20:34;15.90;;;12.55;;
48578;SDS011;34357;51.948;6.132;2022-08-07T06:23:04;21.48;;;13.63;;
48578;SDS011;34357;51.948;6.132;2022-08-07T06:25:36;17.63;;;12.10;;
48578;SDS011;34357;51.948;6.132;2022-08-07T06:28:05;21.45;;;13.60;;
48578;SDS011;34357;51.948;6.132;2022-08-07T06:30:33;18.17;;;12.48;;
48578;SDS011;34357;51.948;6.132;2022-08-07T06:33:00;22.67;;;14.05;;
48578;SDS011;34357;51.948;6.132;2022-08-07T06:35:27;19.60;;;14.18;;
48578;SDS011;34357;51.948;6.132;2022-08-07T06:37:53;18.40;;;12.55;;
48578;SDS011;34357;51.948;6.132;2022-08-07T06:40:24;17.20;;;12.25;;
48578;SDS011;34357;51.948;6.132;2022-08-07T06:42:57;15.10;;;11.25;;
48578;SDS011;34357;51.948;6.132;2022-08-07T06:45:46;14.55;;;10.90;;
48578;SDS011;34357;51.948;6.132;2022-08-07T06:48:14;17.85;;;10.32;;
48578;SDS011;34357;51.948;6.132;2022-08-07T06:50:44;13.50;;;9.88;;
48578;SDS011;34357;51.948;6.132;2022-08-07T06:53:19;14.55;;;9.73;;
48578;SDS011;34357;51.948;6.132;2022-08-07T06:55:48;11.82;;;9.55;;
48578;SDS011;34357;51.948;6.132;2022-08-07T07:00:56;10.70;;;8.75;;
48578;SDS011;34357;51.948;6.132;2022-08-07T07:03:24;10.52;;;8.75;;
48578;SDS011;34357;51.948;6.132;2022-08-07T07:05:54;12.35;;;9.35;;
48578;SDS011;34357;51.948;6.132;2022-08-07T07:08:29;12.55;;;9.00;;
48578;SDS011;34357;51.948;6.132;2022-08-07T07:11:07;10.63;;;8.98;;
48578;SDS011;34357;51.948;6.132;2022-08-07T07:13:35;14.02;;;9.15;;
48578;SDS011;34357;51.948;6.132;2022-08-07T07:16:06;10.48;;;8.15;;
48578;SDS011;34357;51.948;6.132;2022-08-07T07:19:02;10.48;;;8.85;;
48578;SDS011;34357;51.948;6.132;2022-08-07T07:21:29;10.38;;;9.00;;
48578;SDS011;34357;51.948;6.132;2022-08-07T07:24:00;10.85;;;7.93;;
48578;SDS011;34357;51.948;6.132;2022-08-07T07:26:30;8.53;;;7.37;;
48578;SDS011;34357;51.948;6.132;2022-08-07T07:28:59;8.85;;;7.38;;
48578;SDS011;34357;51.948;6.132;2022-08-07T07:31:34;11.73;;;7.80;;
48578;SDS011;34357;51.948;6.132;2022-08-07T07:34:07;7.55;;;6.57;;
48578;SDS011;34357;51.948;6.132;2022-08-07T07:36:38;11.98;;;8.82;;
48578;SDS011;34357;51.948;6.132;2022-08-07T07:39:05;8.68;;;7.68;;
48578;SDS011;34357;51.948;6.132;2022-08-07T07:41:33;13.20;;;7.55;;
48578;SDS011;34357;51.948;6.132;2022-08-07T07:44:00;9.68;;;6.25;;
48578;SDS011;34357;51.948;6.132;2022-08-07T07:46:28;8.95;;;5.60;;
48578;SDS011;34357;51.948;6.132;2022-08-07T07:48:56;12.45;;;6.20;;
48578;SDS011;34357;51.948;6.132;2022-08-07T07:51:24;13.15;;;6.15;;
48578;SDS011;34357;51.948;6.132;2022-08-07T07:53:51;8.02;;;5.65;;
48578;SDS011;34357;51.948;6.132;2022-08-07T07:56:18;7.32;;;4.40;;
48578;SDS011;34357;51.948;6.132;2022-08-07T07:58:47;7.82;;;4.55;;
48578;SDS011;34357;51.948;6.132;2022-08-07T08:01:13;11.48;;;5.78;;
48578;SDS011;34357;51.948;6.132;2022-08-07T08:03:41;9.20;;;6.05;;
48578;SDS011;34357;51.948;6.132;2022-08-07T08:06:08;8.25;;;6.15;;
48578;SDS011;34357;51.948;6.132;2022-08-07T08:08:34;6.80;;;5.60;;
48578;SDS011;34357;51.948;6.132;2022-08-07T08:11:01;8.27;;;5.40;;
48578;SDS011;34357;51.948;6.132;2022-08-07T08:13:31;4.85;;;4.13;;
48578;SDS011;34357;51.948;6.132;2022-08-07T08:16:00;6.22;;;4.07;;
48578;SDS011;34357;51.948;6.132;2022-08-07T08:18:27;7.30;;;5.25;;
48578;SDS011;34357;51.948;6.132;2022-08-07T08:20:54;5.80;;;5.10;;
48578;SDS011;34357;51.948;6.132;2022-08-07T08:23:26;7.45;;;4.82;;
48578;SDS011;34357;51.948;6.132;2022-08-07T08:26:14;7.70;;;4.10;;
48578;SDS011;34357;51.948;6.132;2022-08-07T08:29:01;8.27;;;4.03;;
48578;SDS011;34357;51.948;6.132;2022-08-07T08:31:33;6.85;;;4.90;;
48578;SDS011;34357;51.948;6.132;2022-08-07T08:34:03;5.95;;;4.70;;
48578;SDS011;34357;51.948;6.132;2022-08-07T08:36:33;6.75;;;4.35;;
48578;SDS011;34357;51.948;6.132;2022-08-07T08:39:02;6.38;;;4.95;;
48578;SDS011;34357;51.948;6.132;2022-08-07T08:44:18;4.55;;;3.20;;
48578;SDS011;34357;51.948;6.132;2022-08-07T08:47:04;4.35;;;3.20;;
48578;SDS011;34357;51.948;6.132;2022-08-07T08:50:00;6.50;;;2.97;;
48578;SDS011;34357;51.948;6.132;2022-08-07T08:52:38;4.78;;;2.55;;
48578;SDS011;34357;51.948;6.132;2022-08-07T08:55:29;6.80;;;2.70;;
48578;SDS011;34357;51.948;6.132;2022-08-07T08:58:14;4.43;;;2.80;;
48578;SDS011;34357;51.948;6.132;2022-08-07T09:01:10;12.35;;;3.53;;
48578;SDS011;34357;51.948;6.132;2022-08-07T09:03:46;3.80;;;2.80;;
48578;SDS011;34357;51.948;6.132;2022-08-07T09:06:25;6.80;;;2.63;;
48578;SDS011;34357;51.948;6.132;2022-08-07T09:09:17;6.10;;;3.13;;
48578;SDS011;34357;51.948;6.132;2022-08-07T09:12:11;4.90;;;2.20;;
48578;SDS011;34357;51.948;6.132;2022-08-07T09:20:43;2.63;;;2.08;;
48578;SDS011;34357;51.948;6.132;2022-08-07T09:28:39;4.32;;;2.25;;
48578;SDS011;34357;51.948;6.132;2022-08-07T09:31:22;7.38;;;2.40;;
48578;SDS011;34357;51.948;6.132;2022-08-07T09:34:10;5.20;;;2.15;;
48578;SDS011;34357;51.948;6.132;2022-08-07T09:36:59;4.78;;;2.13;;
48578;SDS011;34357;51.948;6.132;2022-08-07T09:45:03;3.58;;;1.98;;
48578;SDS011;34357;51.948;6.132;2022-08-07T09:51:01;4.53;;;2.20;;
48578;SDS011;34357;51.948;6.132;2022-08-07T09:53:46;3.90;;;2.28;;
48578;SDS011;34357;51.948;6.132;2022-08-07T09:59:00;3.85;;;1.88;;
48578;SDS011;34357;51.948;6.132;2022-08-07T10:10:08;3.30;;;2.17;;
48578;SDS011;34357;51.948;6.132;2022-08-07T10:17:58;5.15;;;2.03;;
48578;SDS011;34357;51.948;6.132;2022-08-07T10:29:36;2.78;;;1.67;;
48578;SDS011;34357;51.948;6.132;2022-08-07T10:41:10;2.97;;;1.55;;
48578;SDS011;34357;51.948;6.132;2022-08-07T10:43:58;6.15;;;2.00;;
48578;SDS011;34357;51.948;6.132;2022-08-07T10:46:28;2.65;;;1.80;;
48578;SDS011;34357;51.948;6.132;2022-08-07T10:49:21;3.25;;;1.85;;
48578;SDS011;34357;51.948;6.132;2022-08-07T10:52:07;2.38;;;1.60;;
48578;SDS011;34357;51.948;6.132;2022-08-07T11:00:11;3.95;;;2.20;;
48578;SDS011;34357;51.948;6.132;2022-08-07T11:02:49;5.40;;;2.10;;
48578;SDS011;34357;51.948;6.132;2022-08-07T11:05:45;2.78;;;2.08;;
48578;SDS011;34357;51.948;6.132;2022-08-07T11:11:36;3.65;;;1.52;;
48578;SDS011;34357;51.948;6.132;2022-08-07T11:14:52;3.55;;;1.77;;
48578;SDS011;34357;51.948;6.132;2022-08-07T11:22:14;2.60;;;1.40;;
48578;SDS011;34357;51.948;6.132;2022-08-07T11:24:54;2.35;;;1.55;;
48578;SDS011;34357;51.948;6.132;2022-08-07T11:27:39;4.00;;;2.10;;
48578;SDS011;34357;51.948;6.132;2022-08-07T11:30:16;3.78;;;1.77;;
48578;SDS011;34357;51.948;6.132;2022-08-07T11:32:59;5.03;;;1.80;;
48578;SDS011;34357;51.948;6.132;2022-08-07T11:35:40;4.25;;;1.67;;
48578;SDS011;34357;51.948;6.132;2022-08-07T11:38:25;3.40;;;2.03;;
48578;SDS011;34357;51.948;6.132;2022-08-07T11:40:58;4.95;;;1.73;;
48578;SDS011;34357;51.948;6.132;2022-08-07T11:43:31;6.68;;;2.33;;
48578;SDS011;34357;51.948;6.132;2022-08-07T11:55:09;2.00;;;1.80;;
48578;SDS011;34357;51.948;6.132;2022-08-07T11:57:46;3.03;;;1.83;;
48578;SDS011;34357;51.948;6.132;2022-08-07T12:00:39;3.67;;;1.88;;
48578;SDS011;34357;51.948;6.132;2022-08-07T12:03:32;3.00;;;1.90;;
48578;SDS011;34357;51.948;6.132;2022-08-07T12:09:23;2.30;;;1.95;;
48578;SDS011;34357;51.948;6.132;2022-08-07T12:12:09;2.70;;;2.10;;
48578;SDS011;34357;51.948;6.132;2022-08-07T12:15:00;5.68;;;2.22;;
48578;SDS011;34357;51.948;6.132;2022-08-07T12:25:51;4.00;;;2.22;;
48578;SDS011;34357;51.948;6.132;2022-08-07T12:31:36;2.70;;;2.25;;
48578;SDS011;34357;51.948;6.132;2022-08-07T12:34:15;5.18;;;1.80;;
48578;SDS011;34357;51.948;6.132;2022-08-07T12:36:43;2.92;;;1.88;;
48578;SDS011;34357;51.948;6.132;2022-08-07T12:39:10;2.35;;;1.92;;
48578;SDS011;34357;51.948;6.132;2022-08-07T12:41:38;4.25;;;2.20;;
48578;SDS011;34357;51.948;6.132;2022-08-07T12:44:07;2.08;;;1.90;;
48578;SDS011;34357;51.948;6.132;2022-08-07T12:49:32;3.67;;;2.03;;
48578;SDS011;34357;51.948;6.132;2022-08-07T12:52:00;2.85;;;1.83;;
48578;SDS011;34357;51.948;6.132;2022-08-07T12:54:36;4.00;;;1.83;;
48578;SDS011;34357;51.948;6.132;2022-08-07T12:57:24;4.65;;;2.25;;
48578;SDS011;34357;51.948;6.132;2022-08-07T12:59:55;4.25;;;2.40;;
48578;SDS011;34357;51.948;6.132;2022-08-07T13:18:49;4.40;;;2.30;;
48578;SDS011;34357;51.948;6.132;2022-08-07T13:21:23;2.40;;;2.20;;
48578;SDS011;34357;51.948;6.132;2022-08-07T13:26:56;3.92;;;2.25;;
48578;SDS011;34357;51.948;6.132;2022-08-07T13:29:37;2.85;;;2.15;;
48578;SDS011;34357;51.948;6.132;2022-08-07T13:32:13;3.17;;;2.10;;
48578;SDS011;34357;51.948;6.132;2022-08-07T13:37:47;3.03;;;2.30;;
48578;SDS011;34357;51.948;6.132;2022-08-07T13:42:58;4.32;;;2.10;;
48578;SDS011;34357;51.948;6.132;2022-08-07T13:45:30;6.15;;;2.40;;
48578;SDS011;34357;51.948;6.132;2022-08-07T13:47:59;3.42;;;2.67;;
48578;SDS011;34357;51.948;6.132;2022-08-07T13:50:28;3.03;;;2.50;;
48578;SDS011;34357;51.948;6.132;2022-08-07T13:52:55;2.85;;;2.35;;
48578;SDS011;34357;51.948;6.132;2022-08-07T13:55:25;4.50;;;4.10;;
48578;SDS011;34357;51.948;6.132;2022-08-07T13:58:02;2.83;;;2.35;;
48578;SDS011;34357;51.948;6.132;2022-08-07T14:00:53;3.28;;;2.38;;
48578;SDS011;34357;51.948;6.132;2022-08-07T14:03:20;5.60;;;2.67;;
48578;SDS011;34357;51.948;6.132;2022-08-07T14:05:53;4.00;;;2.45;;
48578;SDS011;34357;51.948;6.132;2022-08-07T14:08:25;2.65;;;2.45;;
48578;SDS011;34357;51.948;6.132;2022-08-07T14:10:53;5.05;;;2.80;;
48578;SDS011;34357;51.948;6.132;2022-08-07T14:13:25;4.20;;;2.75;;
48578;SDS011;34357;51.948;6.132;2022-08-07T14:15:59;2.85;;;2.42;;
48578;SDS011;34357;51.948;6.132;2022-08-07T14:18:31;4.30;;;2.65;;
48578;SDS011;34357;51.948;6.132;2022-08-07T14:21:04;4.30;;;2.40;;
48578;SDS011;34357;51.948;6.132;2022-08-07T14:23:35;4.50;;;2.53;;
48578;SDS011;34357;51.948;6.132;2022-08-07T14:26:06;7.00;;;2.58;;
48578;SDS011;34357;51.948;6.132;2022-08-07T14:28:38;7.95;;;2.90;;
48578;SDS011;34357;51.948;6.132;2022-08-07T14:33:33;4.50;;;2.97;;
48578;SDS011;34357;51.948;6.132;2022-08-07T14:35:59;3.88;;;2.78;;
48578;SDS011;34357;51.948;6.132;2022-08-07T14:38:28;2.88;;;2.58;;
48578;SDS011;34357;51.948;6.132;2022-08-07T14:41:00;4.63;;;2.72;;
48578;SDS011;34357;51.948;6.132;2022-08-07T14:43:29;6.13;;;2.80;;
48578;SDS011;34357;51.948;6.132;2022-08-07T14:45:58;5.60;;;3.05;;
48578;SDS011;34357;51.948;6.132;2022-08-07T14:48:25;5.45;;;2.90;;
48578;SDS011;34357;51.948;6.132;2022-08-07T14:50:55;4.03;;;2.75;;
48578;SDS011;34357;51.948;6.132;2022-08-07T14:53:23;3.45;;;2.42;;
48578;SDS011;34357;51.948;6.132;2022-08-07T14:55:52;3.42;;;2.60;;
48578;SDS011;34357;51.948;6.132;2022-08-07T14:58:20;4.32;;;2.42;;
48578;SDS011;34357;51.948;6.132;2022-08-07T15:00:51;2.63;;;2.42;;
48578;SDS011;34357;51.948;6.132;2022-08-07T15:03:22;3.47;;;2.70;;
48578;SDS011;34357;51.948;6.132;2022-08-07T15:05:51;4.38;;;2.30;;
48578;SDS011;34357;51.948;6.132;2022-08-07T15:08:37;3.75;;;2.75;;
48578;SDS011;34357;51.948;6.132;2022-08-07T15:11:14;5.00;;;2.60;;
48578;SDS011;34357;51.948;6.132;2022-08-07T15:13:55;4.35;;;2.22;;
48578;SDS011;34357;51.948;6.132;2022-08-07T15:16:40;3.55;;;2.63;;
48578;SDS011;34357;51.948;6.132;2022-08-07T15:19:17;4.03;;;2.35;;
48578;SDS011;34357;51.948;6.132;2022-08-07T15:21:50;4.68;;;2.40;;
48578;SDS011;34357;51.948;6.132;2022-08-07T15:24:37;3.97;;;2.60;;
48578;SDS011;34357;51.948;6.132;2022-08-07T15:27:10;2.83;;;2.53;;
48578;SDS011;34357;51.948;6.132;2022-08-07T15:29:43;4.20;;;2.20;;
48578;SDS011;34357;51.948;6.132;2022-08-07T15:32:11;2.33;;;2.10;;
48578;SDS011;34357;51.948;6.132;2022-08-07T15:34:45;3.40;;;2.42;;
48578;SDS011;34357;51.948;6.132;2022-08-07T15:37:13;3.35;;;2.83;;
48578;SDS011;34357;51.948;6.132;2022-08-07T15:39:45;3.00;;;2.13;;
48578;SDS011;34357;51.948;6.132;2022-08-07T15:42:35;4.05;;;2.70;;
48578;SDS011;34357;51.948;6.132;2022-08-07T15:45:04;2.92;;;2.20;;
48578;SDS011;34357;51.948;6.132;2022-08-07T15:47:33;3.22;;;2.58;;
48578;SDS011;34357;51.948;6.132;2022-08-07T15:50:05;3.45;;;2.30;;
48578;SDS011;34357;51.948;6.132;2022-08-07T15:52:40;3.92;;;2.20;;
48578;SDS011;34357;51.948;6.132;2022-08-07T15:55:12;4.25;;;2.50;;
48578;SDS011;34357;51.948;6.132;2022-08-07T15:57:43;3.10;;;2.20;;
48578;SDS011;34357;51.948;6.132;2022-08-07T16:00:18;5.13;;;2.05;;
48578;SDS011;34357;51.948;6.132;2022-08-07T16:02:45;4.30;;;2.30;;
48578;SDS011;34357;51.948;6.132;2022-08-07T16:05:16;4.82;;;2.20;;
48578;SDS011;34357;51.948;6.132;2022-08-07T16:07:46;4.20;;;2.03;;
48578;SDS011;34357;51.948;6.132;2022-08-07T16:10:22;5.78;;;2.30;;
48578;SDS011;34357;51.948;6.132;2022-08-07T16:21:18;2.15;;;1.83;;
48578;SDS011;34357;51.948;6.132;2022-08-07T16:26:31;4.00;;;2.22;;
48578;SDS011;34357;51.948;6.132;2022-08-07T16:32:07;4.57;;;2.65;;
48578;SDS011;34357;51.948;6.132;2022-08-07T16:34:46;12.35;;;3.08;;
48578;SDS011;34357;51.948;6.132;2022-08-07T16:40:17;4.82;;;2.42;;
48578;SDS011;34357;51.948;6.132;2022-08-07T16:54:28;7.53;;;2.40;;
48578;SDS011;34357;51.948;6.132;2022-08-07T16:59:47;6.30;;;2.03;;
48578;SDS011;34357;51.948;6.132;2022-08-07T17:07:56;5.63;;;1.98;;
48578;SDS011;34357;51.948;6.132;2022-08-07T17:13:30;6.60;;;1.70;;
48578;SDS011;34357;51.948;6.132;2022-08-07T17:16:08;10.73;;;2.17;;
48578;SDS011;34357;51.948;6.132;2022-08-07T17:18:48;9.50;;;2.08;;
48578;SDS011;34357;51.948;6.132;2022-08-07T17:21:26;12.75;;;2.38;;
48578;SDS011;34357;51.948;6.132;2022-08-07T17:26:57;5.05;;;1.60;;
48578;SDS011;34357;51.948;6.132;2022-08-07T17:35:32;5.22;;;1.98;;
48578;SDS011;34357;51.948;6.132;2022-08-07T17:38:14;4.28;;;1.55;;
48578;SDS011;34357;51.948;6.132;2022-08-07T17:40:44;6.70;;;1.98;;
48578;SDS011;34357;51.948;6.132;2022-08-07T17:43:29;10.20;;;2.40;;
48578;SDS011;34357;51.948;6.132;2022-08-07T17:54:33;5.35;;;1.73;;
48578;SDS011;34357;51.948;6.132;2022-08-07T17:59:50;4.68;;;1.27;;
48578;SDS011;34357;51.948;6.132;2022-08-07T18:02:27;8.75;;;1.80;;
48578;SDS011;34357;51.948;6.132;2022-08-07T18:05:13;1.77;;;1.10;;
48578;SDS011;34357;51.948;6.132;2022-08-07T18:08:07;8.90;;;1.73;;
48578;SDS011;34357;51.948;6.132;2022-08-07T18:10:54;11.13;;;2.10;;
48578;SDS011;34357;51.948;6.132;2022-08-07T18:13:44;7.97;;;1.55;;
48578;SDS011;34357;51.948;6.132;2022-08-07T18:16:43;4.20;;;1.65;;
48578;SDS011;34357;51.948;6.132;2022-08-07T18:19:20;6.70;;;1.60;;
48578;SDS011;34357;51.948;6.132;2022-08-07T18:22:00;17.90;;;2.92;;
48578;SDS011;34357;51.948;6.132;2022-08-07T18:24:35;5.60;;;1.50;;
48578;SDS011;34357;51.948;6.132;2022-08-07T18:27:27;7.60;;;1.88;;
48578;SDS011;34357;51.948;6.132;2022-08-07T18:35:48;7.23;;;2.10;;
48578;SDS011;34357;51.948;6.132;2022-08-07T18:41:43;9.60;;;2.15;;
48578;SDS011;34357;51.948;6.132;2022-08-07T18:55:15;9.75;;;2.50;;
48578;SDS011;34357;51.948;6.132;2022-08-07T19:00:42;8.70;;;2.25;;
48578;SDS011;34357;51.948;6.132;2022-08-07T19:12:20;9.30;;;2.45;;
48578;SDS011;34357;51.948;6.132;2022-08-07T19:23:16;7.30;;;2.78;;